Time;durP1;ratioP1;P1;durP2;ratioP2;P2;SDS_P1;SDS_P2;PMS_P1;PMS_P2;Temp;Humidity;BMP_temperature;BMP_pressure;BME280_temperature;BME280_humidity;BME280_pressure;Samples;Min_cycle;Max_cycle;Signal;HPM_P1;HPM_P2
2021/12/09 00:01:06;;;;;;;4.10;2.65;;;22.70;37.40;;;;;;5005267;28;20034;-47
2021/12/09 00:03:35;;;;;;;4.30;2.85;;;22.70;37.40;;;;;;5003134;28;20026;-47
2021/12/09 00:06:03;;;;;;;4.47;2.88;;;22.70;37.40;;;;;;5018961;28;20711;-45
2021/12/09 00:08:29;;;;;;;4.10;2.83;;;22.70;37.30;;;;;;5022673;28;20140;-45
2021/12/09 00:10:57;;;;;;;4.05;2.75;;;22.70;37.30;;;;;;5023998;28;20755;-46
2021/12/09 00:13:24;;;;;;;5.07;3.10;;;22.70;37.30;;;;;;5035393;28;20033;-46
2021/12/09 00:15:50;;;;;;;4.47;2.97;;;22.70;37.30;;;;;;5022298;28;20036;-47
2021/12/09 00:18:17;;;;;;;4.00;2.92;;;22.60;37.30;;;;;;5023888;28;20057;-46
2021/12/09 00:20:44;;;;;;;4.60;3.28;;;22.60;37.20;;;;;;5025781;28;20030;-46
2021/12/09 00:23:09;;;;;;;4.13;2.92;;;22.60;37.20;;;;;;5027259;28;20397;-45
2021/12/09 00:25:36;;;;;;;3.75;2.42;;;22.60;37.20;;;;;;5027887;28;20022;-48
2021/12/09 00:28:03;;;;;;;4.45;3.20;;;22.60;37.20;;;;;;5027258;28;20108;-45
2021/12/09 00:30:30;;;;;;;4.30;3.03;;;22.60;37.30;;;;;;5027304;28;20080;-47
2021/12/09 00:32:56;;;;;;;4.10;2.75;;;22.60;37.20;;;;;;5025975;28;20280;-46
2021/12/09 00:35:28;;;;;;;4.72;3.08;;;22.60;37.20;;;;;;5027924;28;20021;-47
2021/12/09 00:37:56;;;;;;;5.53;3.25;;;22.60;37.20;;;;;;5027101;28;20037;-47
2021/12/09 00:40:22;;;;;;;4.15;2.95;;;22.50;37.20;;;;;;5027637;28;20466;-46
2021/12/09 00:42:48;;;;;;;5.35;2.88;;;22.50;37.20;;;;;;5026993;28;20032;-45
2021/12/09 00:45:14;;;;;;;4.47;2.85;;;22.50;37.20;;;;;;5026694;28;20037;-47
2021/12/09 00:47:39;;;;;;;4.63;3.35;;;22.50;37.20;;;;;;5027769;28;20105;-46
2021/12/09 00:50:06;;;;;;;4.00;2.80;;;22.50;37.20;;;;;;5033928;28;20032;-46
2021/12/09 00:52:31;;;;;;;3.95;2.90;;;22.50;37.20;;;;;;5031065;28;20041;-47
2021/12/09 00:54:59;;;;;;;4.60;3.22;;;22.50;37.20;;;;;;5026004;28;20025;-46
2021/12/09 00:57:25;;;;;;;5.00;3.00;;;22.50;37.20;;;;;;5027161;28;20057;-46
2021/12/09 00:59:52;;;;;;;4.80;3.25;;;22.50;37.20;;;;;;5027463;28;20068;-47
2021/12/09 01:02:18;;;;;;;4.38;3.10;;;22.50;37.20;;;;;;5026662;28;20697;-46
2021/12/09 01:04:46;;;;;;;5.03;3.20;;;22.40;37.10;;;;;;5027668;28;20375;-47
2021/12/09 01:07:12;;;;;;;4.32;3.05;;;22.50;37.20;;;;;;5027259;28;20057;-46
2021/12/09 01:09:38;;;;;;;4.50;2.88;;;22.50;37.20;;;;;;5027070;28;20026;-47
2021/12/09 01:12:05;;;;;;;4.85;3.10;;;22.40;37.10;;;;;;5026508;28;20037;-47
2021/12/09 01:14:31;;;;;;;4.07;2.90;;;22.40;37.10;;;;;;5027257;28;20040;-46
2021/12/09 01:16:57;;;;;;;4.50;2.83;;;22.40;37.20;;;;;;5027322;28;20033;-45
2021/12/09 01:19:23;;;;;;;5.80;3.08;;;22.40;37.20;;;;;;5026813;28;20597;-46
2021/12/09 01:21:49;;;;;;;5.10;3.35;;;22.40;37.20;;;;;;5027031;28;20035;-47
2021/12/09 01:24:15;;;;;;;4.60;2.90;;;22.40;37.30;;;;;;5026305;28;20788;-46
2021/12/09 01:26:41;;;;;;;4.13;2.60;;;22.40;37.30;;;;;;5026424;28;20037;-46
2021/12/09 01:29:16;;;;;;;4.35;3.03;;;22.40;37.30;;;;;;5025379;28;20025;-47
2021/12/09 01:31:51;;;;;;;4.22;3.08;;;22.40;37.30;;;;;;5025424;28;20033;-46
2021/12/09 01:34:19;;;;;;;4.88;3.05;;;22.30;37.40;;;;;;5025943;28;20091;-45
2021/12/09 01:36:47;;;;;;;4.55;2.72;;;22.30;37.40;;;;;;5026511;28;20022;-46
2021/12/09 01:39:14;;;;;;;3.95;2.95;;;22.30;37.40;;;;;;5026843;28;20055;-46
2021/12/09 01:41:40;;;;;;;4.40;2.60;;;22.30;37.30;;;;;;5026190;28;20036;-45
2021/12/09 01:44:06;;;;;;;4.10;3.08;;;22.30;37.40;;;;;;5024859;28;20056;-46
2021/12/09 01:46:32;;;;;;;4.35;2.78;;;22.30;37.30;;;;;;5025747;28;20318;-46
2021/12/09 01:48:58;;;;;;;4.28;2.80;;;22.30;37.20;;;;;;5026333;28;20069;-47
2021/12/09 01:51:24;;;;;;;5.20;3.33;;;22.30;37.20;;;;;;5036395;28;20068;-46
2021/12/09 01:53:51;;;;;;;4.55;3.05;;;22.30;37.20;;;;;;5026180;28;20437;-45
2021/12/09 01:56:23;;;;;;;4.65;3.30;;;22.30;37.20;;;;;;5026243;28;20022;-46
2021/12/09 01:58:55;;;;;;;4.55;2.90;;;22.30;37.20;;;;;;5026341;28;20641;-46
2021/12/09 02:01:22;;;;;;;5.00;2.85;;;22.30;37.20;;;;;;5024849;28;20124;-46
2021/12/09 02:03:48;;;;;;;4.15;2.95;;;22.30;37.20;;;;;;5025159;28;20028;-47
2021/12/09 02:06:14;;;;;;;4.68;3.10;;;22.20;37.10;;;;;;5026277;28;20095;-45
2021/12/09 02:08:40;;;;;;;4.63;3.00;;;22.20;37.10;;;;;;5025678;28;20041;-46
2021/12/09 02:11:06;;;;;;;4.43;3.22;;;22.20;37.10;;;;;;5026170;28;20049;-47
2021/12/09 02:13:32;;;;;;;5.10;3.28;;;22.20;37.10;;;;;;5025389;28;20034;-47
2021/12/09 02:15:58;;;;;;;4.53;3.35;;;22.20;37.10;;;;;;5025929;28;20030;-47
2021/12/09 02:18:24;;;;;;;4.93;3.33;;;22.20;37.10;;;;;;5025594;28;20437;-46
2021/12/09 02:21:05;;;;;;;4.75;3.63;;;22.20;37.10;;;;;;5025423;28;20556;-47
2021/12/09 02:23:31;;;;;;;4.78;3.33;;;22.20;37.10;;;;;;5025718;28;20029;-46
2021/12/09 02:25:56;;;;;;;5.20;3.78;;;22.20;37.10;;;;;;5025698;28;20397;-46
2021/12/09 02:28:22;;;;;;;5.22;3.50;;;22.20;37.10;;;;;;5024228;28;20041;-45
2021/12/09 02:30:48;;;;;;;4.78;3.38;;;22.20;37.10;;;;;;5025737;28;20025;-45
2021/12/09 02:33:13;;;;;;;4.28;3.38;;;22.20;37.10;;;;;;5025040;28;20046;-47
2021/12/09 02:35:39;;;;;;;4.75;3.22;;;22.10;37.10;;;;;;5025414;28;20033;-45
2021/12/09 02:38:07;;;;;;;5.28;3.60;;;22.10;37.10;;;;;;5025357;28;20432;-46
2021/12/09 02:40:33;;;;;;;5.50;3.80;;;22.10;37.10;;;;;;5025400;28;20057;-46
2021/12/09 02:43:01;;;;;;;5.57;4.10;;;22.10;37.10;;;;;;5022414;28;20561;-46
2021/12/09 02:45:27;;;;;;;5.22;3.95;;;22.10;37.10;;;;;;5025259;28;20030;-47
2021/12/09 02:47:52;;;;;;;4.60;3.42;;;22.10;37.10;;;;;;5025199;28;20045;-46
2021/12/09 02:50:18;;;;;;;5.38;3.78;;;22.10;37.20;;;;;;5033379;28;20096;-45
2021/12/09 02:52:44;;;;;;;5.47;3.90;;;22.00;37.10;;;;;;5027112;28;20025;-47
2021/12/09 02:55:10;;;;;;;6.10;4.05;;;22.00;37.10;;;;;;5025156;28;20040;-46
2021/12/09 02:57:35;;;;;;;5.28;3.72;;;22.10;37.20;;;;;;5024583;28;20030;-45
2021/12/09 03:00:04;;;;;;;6.57;4.53;;;22.00;37.10;;;;;;5017446;28;20036;-45
2021/12/09 03:02:30;;;;;;;5.10;4.00;;;22.00;37.10;;;;;;5005222;28;20038;-45
2021/12/09 03:04:59;;;;;;;5.45;3.97;;;22.00;37.10;;;;;;5004919;28;20022;-46
2021/12/09 03:07:35;;;;;;;5.57;4.25;;;22.00;37.10;;;;;;5005010;28;20029;-47
2021/12/09 03:10:20;;;;;;;5.05;3.58;;;22.00;37.20;;;;;;5005098;28;20788;-47
2021/12/09 03:12:58;;;;;;;5.38;3.90;;;22.00;37.10;;;;;;5004739;28;20585;-46
2021/12/09 03:15:24;;;;;;;5.88;4.18;;;22.00;37.10;;;;;;5004991;28;20033;-49
2021/12/09 03:17:50;;;;;;;5.25;4.15;;;22.00;37.10;;;;;;5005024;28;20030;-45
2021/12/09 03:20:18;;;;;;;6.20;4.50;;;22.00;37.30;;;;;;5005182;28;20552;-45
2021/12/09 03:22:45;;;;;;;4.90;3.80;;;22.00;37.30;;;;;;5022180;28;20116;-46
2021/12/09 03:25:12;;;;;;;5.15;3.83;;;22.00;37.30;;;;;;5024861;28;20034;-46
2021/12/09 03:27:38;;;;;;;5.05;4.15;;;22.00;37.30;;;;;;5024276;28;20053;-45
2021/12/09 03:30:09;;;;;;;5.47;4.03;;;21.90;37.30;;;;;;5017691;28;20045;-45
2021/12/09 03:32:35;;;;;;;5.80;4.40;;;21.90;37.30;;;;;;5004332;28;20042;-45
2021/12/09 03:35:01;;;;;;;5.93;4.47;;;21.90;37.20;;;;;;5005150;28;20095;-45
2021/12/09 03:37:27;;;;;;;5.70;4.22;;;21.90;37.20;;;;;;5004177;28;20041;-45
2021/12/09 03:39:54;;;;;;;5.63;4.43;;;21.90;37.20;;;;;;5004480;28;20038;-45
2021/12/09 03:42:25;;;;;;;6.05;4.50;;;21.90;37.30;;;;;;5003983;28;20187;-45
2021/12/09 03:44:52;;;;;;;6.40;4.72;;;21.90;37.30;;;;;;5008627;28;20025;-44
2021/12/09 03:47:22;;;;;;;6.20;5.05;;;21.90;37.20;;;;;;5006699;28;20034;-45
2021/12/09 03:49:48;;;;;;;6.32;4.63;;;21.90;37.90;;;;;;5027893;28;20028;-45
2021/12/09 03:52:15;;;;;;;6.30;5.00;;;21.90;37.20;;;;;;5030209;28;20090;-45
2021/12/09 03:54:42;;;;;;;5.35;4.30;;;21.90;37.30;;;;;;5024125;28;20025;-45
2021/12/09 03:57:10;;;;;;;6.00;4.75;;;21.90;37.20;;;;;;5024005;28;20172;-45
2021/12/09 03:59:36;;;;;;;5.55;4.22;;;21.80;37.10;;;;;;5024087;28;20022;-45
2021/12/09 04:02:03;;;;;;;6.20;5.00;;;21.80;37.20;;;;;;5023785;28;20287;-45
2021/12/09 04:04:29;;;;;;;5.82;4.32;;;21.80;37.20;;;;;;5024082;28;20739;-47
2021/12/09 04:06:55;;;;;;;5.53;4.43;;;21.80;37.20;;;;;;5024055;28;20497;-47
2021/12/09 04:09:22;;;;;;;6.00;4.88;;;21.80;37.20;;;;;;5023792;28;20029;-45
2021/12/09 04:11:50;;;;;;;5.55;4.60;;;21.80;37.20;;;;;;5024032;28;20680;-45
2021/12/09 04:14:16;;;;;;;6.07;4.75;;;21.80;37.20;;;;;;5023469;28;20029;-47
2021/12/09 04:16:43;;;;;;;7.60;5.40;;;21.80;37.20;;;;;;5024004;28;20041;-48
2021/12/09 04:19:10;;;;;;;6.18;4.80;;;21.80;37.20;;;;;;5023732;28;20036;-46
2021/12/09 04:21:36;;;;;;;5.78;4.70;;;21.80;37.20;;;;;;5024017;28;20029;-46
2021/12/09 04:24:09;;;;;;;6.10;4.85;;;21.80;37.20;;;;;;5023393;28;20564;-45
2021/12/09 04:26:37;;;;;;;6.28;4.72;;;21.80;37.20;;;;;;5023898;28;20040;-46
2021/12/09 04:29:04;;;;;;;6.30;4.80;;;21.80;37.20;;;;;;5024020;28;20448;-46
2021/12/09 04:31:30;;;;;;;6.45;5.07;;;21.80;37.20;;;;;;5023952;28;20041;-46
2021/12/09 04:33:56;;;;;;;5.88;4.72;;;21.80;37.20;;;;;;5023539;28;20037;-47
2021/12/09 04:36:23;;;;;;;6.78;5.32;;;21.80;37.20;;;;;;5023913;28;20456;-46
2021/12/09 04:38:50;;;;;;;7.07;5.60;;;21.80;37.20;;;;;;5023735;28;20026;-47
2021/12/09 04:41:16;;;;;;;5.90;4.57;;;21.80;37.20;;;;;;5022811;28;20128;-45
2021/12/09 04:43:43;;;;;;;6.30;4.85;;;21.80;37.20;;;;;;5023065;28;20393;-46
2021/12/09 04:46:10;;;;;;;6.15;4.60;;;21.80;37.20;;;;;;5023349;28;20492;-47
2021/12/09 04:48:36;;;;;;;6.43;5.22;;;21.80;37.20;;;;;;5023490;28;20037;-45
2021/12/09 04:51:02;;;;;;;7.45;5.80;;;21.80;37.20;;;;;;5037918;28;20450;-45
2021/12/09 04:53:28;;;;;;;6.68;5.25;;;21.80;37.20;;;;;;5043592;28;20052;-45
2021/12/09 04:55:54;;;;;;;6.30;5.03;;;21.80;37.10;;;;;;5043798;28;20068;-45
2021/12/09 04:58:20;;;;;;;6.45;4.97;;;21.80;37.20;;;;;;5043457;28;20087;-45
2021/12/09 05:00:48;;;;;;;5.85;5.10;;;21.70;37.20;;;;;;5029621;28;20033;-44
2021/12/09 05:03:14;;;;;;;7.03;5.20;;;21.80;37.20;;;;;;5007497;28;20025;-45
2021/12/09 05:05:44;;;;;;;6.32;5.10;;;21.80;37.10;;;;;;5024051;28;20032;-45
2021/12/09 05:08:13;;;;;;;6.70;5.28;;;21.70;37.20;;;;;;5025034;28;20085;-44
2021/12/09 05:13:28;;;;;;;6.53;5.30;;;21.70;37.20;;;;;;5020906;28;20029;-44
2021/12/09 05:15:56;;;;;;;6.68;5.15;;;21.70;37.20;;;;;;5022335;28;20037;-45
2021/12/09 05:18:23;;;;;;;6.82;5.38;;;21.70;37.30;;;;;;5023340;28;20022;-45
2021/12/09 05:20:50;;;;;;;7.68;5.55;;;21.70;37.30;;;;;;5024186;28;20021;-45
2021/12/09 05:23:17;;;;;;;6.65;5.60;;;21.70;37.30;;;;;;5025878;28;20518;-45
2021/12/09 05:25:44;;;;;;;6.90;5.50;;;21.70;37.90;;;;;;5025951;28;20116;-45
2021/12/09 05:28:11;;;;;;;6.93;5.80;;;21.70;38.20;;;;;;5023869;28;20025;-45
2021/12/09 05:32:07;;;;;;;8.40;6.05;;;21.80;38.30;;;;;;5021588;28;20114;-45
2021/12/09 05:33:23;;;;;;;7.35;5.95;;;21.80;38.40;;;;;;5024759;28;20521;-45
2021/12/09 05:35:49;;;;;;;7.55;6.40;;;21.80;38.50;;;;;;5024947;28;20040;-45
2021/12/09 05:38:14;;;;;;;8.73;6.45;;;21.90;38.50;;;;;;5026438;28;20600;-45
2021/12/09 05:40:40;;;;;;;9.93;6.45;;;22.00;38.50;;;;;;5026414;28;20493;-44
2021/12/09 05:43:06;;;;;;;7.43;6.32;;;22.00;38.40;;;;;;5025456;28;20029;-45
2021/12/09 05:45:31;;;;;;;7.22;6.07;;;22.10;38.40;;;;;;5026507;28;20087;-45
2021/12/09 05:47:57;;;;;;;9.23;6.85;;;22.10;38.30;;;;;;5025426;28;20029;-49
2021/12/09 05:50:23;;;;;;;7.50;5.85;;;22.20;38.30;;;;;;5035185;28;20473;-45
2021/12/09 05:52:49;;;;;;;8.80;6.38;;;22.20;38.10;;;;;;5042384;28;20444;-45
2021/12/09 05:55:16;;;;;;;7.45;6.07;;;22.30;38.10;;;;;;5026016;28;20036;-45
2021/12/09 05:57:41;;;;;;;6.85;5.28;;;22.40;38.00;;;;;;5026326;28;20022;-45
2021/12/09 06:00:08;;;;;;;7.10;5.47;;;22.50;38.00;;;;;;5025634;28;20179;-45
2021/12/09 06:02:35;;;;;;;7.32;5.72;;;22.50;37.80;;;;;;5007961;28;20056;-44
2021/12/09 06:05:03;;;;;;;6.70;5.07;;;22.60;37.70;;;;;;5025405;28;20630;-44
2021/12/09 06:07:29;;;;;;;6.90;5.57;;;22.70;37.60;;;;;;5025409;28;20029;-44
2021/12/09 06:09:55;;;;;;;6.20;5.13;;;22.70;37.50;;;;;;5023473;28;20417;-44
2021/12/09 06:12:21;;;;;;;6.80;5.50;;;22.80;37.40;;;;;;5024986;28;20692;-46
2021/12/09 06:14:47;;;;;;;6.70;5.25;;;22.90;37.50;;;;;;5024110;28;20021;-46
2021/12/09 06:17:13;;;;;;;7.13;5.25;;;22.90;37.80;;;;;;5023826;28;20030;-46
2021/12/09 06:19:39;;;;;;;8.48;6.10;;;23.00;38.00;;;;;;5025251;28;20025;-49
2021/12/09 06:22:05;;;;;;;6.93;5.57;;;23.00;37.90;;;;;;5023963;28;20029;-46
2021/12/09 06:24:30;;;;;;;6.90;5.55;;;23.10;37.90;;;;;;5025742;28;20129;-44
2021/12/09 06:26:57;;;;;;;7.80;5.38;;;23.20;37.90;;;;;;5024139;28;20044;-45
2021/12/09 06:29:23;;;;;;;6.47;5.35;;;23.30;37.90;;;;;;5024932;28;20104;-44
2021/12/09 06:31:49;;;;;;;7.43;5.80;;;23.30;38.00;;;;;;5024968;28;20108;-45
2021/12/09 06:34:14;;;;;;;7.90;5.70;;;23.40;37.80;;;;;;5024784;28;20021;-45
2021/12/09 06:36:41;;;;;;;6.95;5.35;;;23.50;37.80;;;;;;5024684;28;20498;-44
2021/12/09 06:39:07;;;;;;;6.63;5.60;;;23.50;37.70;;;;;;5024730;28;20029;-45
2021/12/09 06:41:33;;;;;;;6.10;5.05;;;23.60;37.50;;;;;;5024796;28;20037;-45
2021/12/09 06:43:59;;;;;;;6.57;5.03;;;23.60;37.30;;;;;;5022067;28;20017;-46
2021/12/09 06:46:25;;;;;;;6.45;5.35;;;23.70;37.20;;;;;;5024610;28;20104;-46
2021/12/09 06:48:51;;;;;;;7.43;5.80;;;23.80;37.10;;;;;;5023894;28;20064;-46
2021/12/09 06:51:17;;;;;;;8.13;5.70;;;23.80;37.00;;;;;;5024110;28;20034;-47
2021/12/09 06:53:43;;;;;;;6.47;5.28;;;23.90;37.00;;;;;;5023796;28;20029;-46
2021/12/09 06:56:09;;;;;;;7.03;4.97;;;23.90;37.00;;;;;;5024502;28;20026;-46
2021/12/09 06:58:35;;;;;;;6.93;5.65;;;24.00;36.80;;;;;;5023873;28;20029;-46
2021/12/09 07:01:02;;;;;;;6.65;5.28;;;24.00;36.80;;;;;;5022371;28;20486;-47
2021/12/09 07:03:28;;;;;;;7.13;5.28;;;24.10;36.80;;;;;;5023863;28;20021;-46
2021/12/09 07:05:56;;;;;;;6.65;5.28;;;24.10;36.70;;;;;;5023872;28;20017;-46
2021/12/09 07:08:22;;;;;;;5.88;4.40;;;24.10;36.70;;;;;;5024933;28;20051;-46
2021/12/09 07:10:48;;;;;;;6.00;5.28;;;24.10;36.60;;;;;;5024398;28;20055;-46
2021/12/09 07:13:14;;;;;;;6.60;5.10;;;24.20;36.50;;;;;;5039410;28;20036;-46
2021/12/09 07:15:40;;;;;;;6.28;4.70;;;24.20;36.40;;;;;;5023392;28;20038;-46
2021/12/09 07:18:06;;;;;;;6.20;4.63;;;24.20;36.40;;;;;;5024138;28;20092;-45
2021/12/09 07:20:32;;;;;;;6.00;4.40;;;24.30;36.50;;;;;;5024102;28;20064;-45
2021/12/09 07:22:59;;;;;;;5.60;4.50;;;24.30;36.40;;;;;;5024008;28;20235;-45
2021/12/09 07:25:27;;;;;;;5.75;4.68;;;24.30;36.40;;;;;;5024549;28;20021;-45
2021/12/09 07:27:53;;;;;;;6.32;4.78;;;24.30;36.40;;;;;;5022859;28;20075;-46
2021/12/09 07:30:21;;;;;;;7.25;5.25;;;24.30;36.30;;;;;;5022776;28;20033;-47
2021/12/09 07:32:48;;;;;;;5.38;4.32;;;24.30;36.20;;;;;;5021272;28;20079;-46
2021/12/09 07:35:15;;;;;;;5.82;4.72;;;24.30;36.00;;;;;;5021972;28;20025;-46
2021/12/09 07:37:42;;;;;;;7.93;5.97;;;24.30;35.90;;;;;;5023091;28;20026;-46
2021/12/09 07:40:11;;;;;;;9.48;5.85;;;24.30;35.70;;;;;;5022015;28;20496;-46
2021/12/09 07:42:37;;;;;;;5.82;4.25;;;24.40;35.90;;;;;;5022412;28;20075;-46
2021/12/09 07:45:09;;;;;;;6.90;5.55;;;24.40;35.80;;;;;;5022901;28;20025;-47
2021/12/09 07:47:35;;;;;;;8.23;4.85;;;24.40;35.70;;;;;;5022893;28;20108;-47
2021/12/09 07:50:01;;;;;;;7.18;4.95;;;24.40;35.60;;;;;;5023777;28;20072;-47
2021/12/09 07:52:27;;;;;;;6.65;5.70;;;24.40;35.30;;;;;;5021905;28;20026;-47
2021/12/09 07:54:53;;;;;;;7.35;5.18;;;24.40;35.30;;;;;;5023542;28;20029;-48
2021/12/09 07:57:19;;;;;;;6.35;4.90;;;24.50;35.30;;;;;;5023672;28;20032;-47
2021/12/09 07:59:44;;;;;;;7.03;4.78;;;24.50;35.30;;;;;;5023782;28;20580;-47
2021/12/09 08:02:11;;;;;;;6.03;5.05;;;24.50;35.30;;;;;;5023279;28;20040;-47
2021/12/09 08:04:37;;;;;;;6.80;5.30;;;24.50;35.30;;;;;;5024196;28;20084;-47
2021/12/09 08:07:03;;;;;;;6.35;5.00;;;24.50;35.10;;;;;;5023336;28;20037;-47
2021/12/09 08:09:29;;;;;;;6.10;5.00;;;24.50;35.30;;;;;;5024412;28;20104;-47
2021/12/09 08:11:55;;;;;;;8.50;5.07;;;24.60;35.20;;;;;;5023779;28;20159;-46
2021/12/09 08:14:20;;;;;;;6.15;4.28;;;24.60;35.00;;;;;;5024321;28;20029;-46
2021/12/09 08:16:56;;;;;;;6.65;4.53;;;24.60;35.10;;;;;;5023614;28;20055;-46
2021/12/09 08:19:22;;;;;;;5.43;4.22;;;24.60;35.10;;;;;;5023491;28;20021;-47
2021/12/09 08:21:48;;;;;;;5.22;4.10;;;24.60;35.00;;;;;;5023944;28;20037;-47
2021/12/09 08:24:14;;;;;;;5.15;3.97;;;24.60;35.10;;;;;;5023827;28;20511;-47
2021/12/09 08:26:39;;;;;;;6.15;4.45;;;24.60;35.00;;;;;;5023796;28;20184;-48
2021/12/09 08:29:06;;;;;;;6.13;5.07;;;24.60;35.00;;;;;;5023152;28;20045;-47
2021/12/09 08:31:34;;;;;;;6.38;4.85;;;24.60;34.90;;;;;;5023504;28;20105;-47
2021/12/09 08:34:01;;;;;;;6.65;4.60;;;24.60;35.00;;;;;;5023682;28;20033;-46
2021/12/09 08:36:26;;;;;;;5.68;4.30;;;24.60;35.00;;;;;;5023699;28;20025;-46
2021/12/09 08:38:52;;;;;;;6.30;4.88;;;24.60;34.80;;;;;;5023594;28;20021;-47
2021/12/09 08:41:19;;;;;;;4.97;4.00;;;24.60;34.80;;;;;;5024722;28;20111;-48
2021/12/09 08:43:46;;;;;;;6.13;4.03;;;24.60;35.00;;;;;;5027215;28;20033;-46
2021/12/09 08:46:14;;;;;;;5.18;4.30;;;24.60;34.90;;;;;;5024804;28;20029;-47
2021/12/09 08:48:40;;;;;;;5.95;4.55;;;24.60;34.90;;;;;;5027146;28;20703;-46
2021/12/09 08:51:06;;;;;;;5.03;4.05;;;24.60;34.80;;;;;;5038315;28;20037;-47
2021/12/09 08:53:31;;;;;;;6.53;4.70;;;24.60;34.80;;;;;;5026768;28;20057;-47
2021/12/09 08:55:57;;;;;;;6.35;4.20;;;24.60;34.80;;;;;;5025754;28;20025;-47
2021/12/09 08:58:23;;;;;;;5.20;3.80;;;24.60;34.90;;;;;;5026884;28;20028;-47
2021/12/09 09:00:52;;;;;;;5.18;4.18;;;24.60;34.80;;;;;;5026713;28;20609;-47
2021/12/09 09:03:18;;;;;;;5.50;4.22;;;24.60;34.90;;;;;;5023280;28;20080;-47
2021/12/09 09:05:44;;;;;;;5.35;4.07;;;24.70;35.00;;;;;;5007373;28;20021;-46
2021/12/09 09:08:10;;;;;;;5.22;3.92;;;24.60;34.90;;;;;;5007188;28;20053;-47
2021/12/09 09:10:40;;;;;;;5.72;4.32;;;24.60;34.80;;;;;;5006982;28;20030;-47
2021/12/09 09:13:06;;;;;;;4.80;3.83;;;24.60;34.80;;;;;;5018495;28;20025;-47
2021/12/09 09:15:32;;;;;;;4.70;3.30;;;24.70;35.00;;;;;;5023285;28;20029;-47
2021/12/09 09:17:59;;;;;;;5.28;4.03;;;24.70;35.00;;;;;;5007071;28;20049;-47
2021/12/09 09:20:28;;;;;;;5.30;4.00;;;24.60;34.70;;;;;;5007239;28;20029;-48
2021/12/09 09:22:54;;;;;;;5.65;3.80;;;24.70;34.90;;;;;;5005645;28;20053;-47
2021/12/09 09:25:28;;;;;;;4.75;3.67;;;24.70;34.90;;;;;;5007107;28;20041;-47
2021/12/09 09:27:54;;;;;;;4.72;3.72;;;24.60;34.80;;;;;;5006319;28;20034;-47
2021/12/09 09:30:20;;;;;;;4.65;3.35;;;24.60;34.80;;;;;;5007495;28;20064;-46
2021/12/09 09:32:49;;;;;;;4.70;3.80;;;24.60;34.80;;;;;;5026076;28;20807;-47
2021/12/09 09:35:16;;;;;;;4.78;3.50;;;24.60;34.80;;;;;;5025337;28;20091;-46
2021/12/09 09:37:42;;;;;;;4.57;3.40;;;24.70;34.90;;;;;;5026329;28;20565;-47
2021/12/09 09:40:14;;;;;;;4.63;3.40;;;24.70;34.80;;;;;;5025889;28;20018;-47
2021/12/09 09:45:10;;;;;;;5.13;3.65;;;24.60;34.80;;;;;;5026158;28;20641;-47
2021/12/09 09:47:36;;;;;;;4.82;3.60;;;24.60;34.80;;;;;;5005256;28;20036;-45
2021/12/09 09:50:04;;;;;;;5.07;3.88;;;24.70;34.80;;;;;;5018430;28;20047;-46
2021/12/09 09:52:30;;;;;;;4.82;3.70;;;24.70;34.80;;;;;;5045458;28;20044;-47
2021/12/09 09:54:56;;;;;;;4.43;3.45;;;24.60;34.80;;;;;;5046004;28;20033;-47
2021/12/09 09:57:23;;;;;;;5.88;4.20;;;24.70;34.90;;;;;;5045360;28;20067;-46
2021/12/09 09:59:49;;;;;;;4.95;3.72;;;24.70;34.80;;;;;;5045951;28;20052;-46
2021/12/09 10:02:15;;;;;;;4.85;3.50;;;24.70;34.80;;;;;;5028524;28;20068;-48
2021/12/09 10:04:47;;;;;;;4.50;3.20;;;24.70;34.80;;;;;;5026211;28;20064;-47
2021/12/09 10:07:16;;;;;;;5.32;3.90;;;24.70;34.80;;;;;;5025919;28;20052;-47
2021/12/09 10:09:43;;;;;;;5.43;3.83;;;24.70;34.70;;;;;;5025970;28;20030;-47
2021/12/09 10:12:09;;;;;;;5.50;3.97;;;24.60;34.70;;;;;;5025485;28;20037;-46
2021/12/09 10:14:38;;;;;;;5.03;3.40;;;24.70;34.80;;;;;;5025878;28;20036;-47
2021/12/09 10:17:04;;;;;;;5.50;4.13;;;24.70;34.80;;;;;;5025596;28;20029;-45
2021/12/09 10:19:30;;;;;;;4.28;3.25;;;24.70;34.80;;;;;;5025882;28;20503;-47
2021/12/09 10:22:08;;;;;;;4.93;3.80;;;24.70;34.80;;;;;;5025504;28;20036;-48
2021/12/09 10:24:35;;;;;;;4.78;3.28;;;24.70;34.80;;;;;;5025284;28;20096;-48
2021/12/09 10:27:01;;;;;;;5.25;3.88;;;24.70;34.80;;;;;;5025365;28;20033;-47
2021/12/09 10:29:47;;;;;;;4.78;3.50;;;24.70;34.70;;;;;;5025645;28;20061;-46
2021/12/09 10:32:23;;;;;;;5.13;3.72;;;24.70;34.80;;;;;;5024774;28;20029;-47
2021/12/09 10:34:49;;;;;;;5.00;3.42;;;24.70;34.70;;;;;;5025660;28;20037;-47
2021/12/09 10:37:24;;;;;;;4.93;3.72;;;24.70;34.70;;;;;;5025262;28;20022;-47
2021/12/09 10:39:54;;;;;;;5.15;3.47;;;24.70;34.90;;;;;;5021481;28;20025;-46
2021/12/09 10:42:32;;;;;;;4.88;3.55;;;24.70;34.80;;;;;;5011138;28;20037;-46
2021/12/09 10:45:01;;;;;;;5.03;3.60;;;24.70;34.80;;;;;;5024077;28;20022;-47
2021/12/09 10:50:28;;;;;;;4.95;3.60;;;24.70;34.80;;;;;;5030511;28;20064;-47
2021/12/09 10:53:01;;;;;;;4.63;3.08;;;24.70;34.80;;;;;;5044776;28;20029;-48
2021/12/09 10:55:33;;;;;;;;;;;24.70;34.80;;;;;;5045459;28;20033;-46
2021/12/09 10:58:14;;;;;;;4.63;2.85;;;24.70;34.80;;;;;;5044758;28;19909;-47
2021/12/09 11:00:42;;;;;;;4.97;3.35;;;24.70;34.80;;;;;;5038484;28;20037;-48
2021/12/09 11:03:09;;;;;;;6.60;3.50;;;24.70;34.80;;;;;;5004543;28;20026;-47
2021/12/09 11:05:41;;;;;;;4.95;2.97;;;24.60;34.70;;;;;;5004794;28;20056;-47
2021/12/09 11:08:24;;;;;;;4.97;3.40;;;24.60;34.70;;;;;;5005201;28;20041;-47
2021/12/09 11:10:58;;;;;;;5.50;3.10;;;24.70;34.80;;;;;;5005144;28;20044;-45
2021/12/09 11:13:25;;;;;;;4.72;3.13;;;24.70;34.80;;;;;;5017769;28;20026;-47
2021/12/09 11:15:57;;;;;;;4.80;3.35;;;24.70;34.80;;;;;;5024496;28;20155;-46
2021/12/09 11:18:31;;;;;;;4.70;3.10;;;24.70;34.80;;;;;;5024525;28;20071;-47
2021/12/09 11:20:58;;;;;;;5.13;3.40;;;24.60;34.70;;;;;;5024657;28;20029;-47
2021/12/09 11:23:35;;;;;;;5.50;3.33;;;24.70;34.80;;;;;;5024623;28;20245;-46
2021/12/09 11:29:25;;;;;;;5.72;3.30;;;24.70;34.80;;;;;;5024852;28;20686;-47
2021/12/09 11:35:34;;;;;;;5.13;3.00;;;24.70;34.80;;;;;;5030636;28;20106;-48
2021/12/09 11:37:52;;;;;;;5.78;2.92;;;24.70;34.80;;;;;;5026136;28;20044;-47
2021/12/09 11:40:32;;;;;;;4.88;3.50;;;24.60;34.70;;;;;;5016535;28;20021;-47
2021/12/09 11:43:00;;;;;;;5.45;2.88;;;24.60;34.70;;;;;;5015364;28;20025;-48
2021/12/09 11:45:36;;;;;;;4.93;3.40;;;24.70;34.80;;;;;;5024039;28;20025;-47
2021/12/09 11:48:04;;;;;;;4.93;3.22;;;24.60;34.70;;;;;;5003085;28;20034;-46
2021/12/09 11:50:38;;;;;;;6.35;3.78;;;24.60;34.60;;;;;;5024535;28;20029;-47
2021/12/09 11:53:07;;;;;;;5.75;3.38;;;24.60;34.60;;;;;;5043763;28;20025;-47
2021/12/09 11:55:38;;;;;;;4.90;2.90;;;24.60;34.60;;;;;;5044194;28;20036;-48
2021/12/09 12:11:56;;;;;;;4.50;3.10;;;24.50;34.80;;;;;;5024219;28;20079;-47
2021/12/09 12:14:41;;;;;;;4.82;3.10;;;24.50;34.80;;;;;;5023947;28;20500;-47
2021/12/09 12:17:15;;;;;;;3.95;2.80;;;24.50;34.70;;;;;;5028234;28;20068;-47
2021/12/09 12:20:26;;;;;;;4.78;3.00;;;24.50;34.90;;;;;;5028044;28;20040;-47
2021/12/09 12:29:19;;;;;;;4.53;2.92;;;24.50;34.80;;;;;;5028318;28;20025;-47
2021/12/09 12:31:56;;;;;;;4.63;2.58;;;24.50;34.80;;;;;;5027174;28;20037;-47
2021/12/09 12:37:12;;;;;;;4.68;3.05;;;24.50;34.80;;;;;;5027562;28;20496;-48
2021/12/09 12:42:17;;;;;;;4.50;3.10;;;24.50;34.80;;;;;;5027583;28;20496;-47
2021/12/09 12:45:28;;;;;;;4.10;2.63;;;24.50;34.80;;;;;;5027938;28;20041;-48
2021/12/09 12:50:33;;;;;;;4.50;2.63;;;24.50;34.80;;;;;;5027358;28;20476;-47
2021/12/09 12:53:41;;;;;;;4.43;2.72;;;24.50;34.80;;;;;;5026910;28;20040;-48
2021/12/09 12:56:20;;;;;;;4.40;2.63;;;24.50;34.80;;;;;;5026754;28;20620;-47
2021/12/09 12:59:08;;;;;;;4.43;2.97;;;24.50;34.80;;;;;;5027149;28;20021;-47
2021/12/09 13:01:42;;;;;;;4.60;3.20;;;24.50;34.80;;;;;;5026162;28;20674;-48
2021/12/09 13:04:35;;;;;;;4.43;3.03;;;24.50;34.90;;;;;;5026693;28;20095;-47
2021/12/09 13:07:29;;;;;;;4.38;2.83;;;24.50;34.80;;;;;;5027164;28;20029;-48
2021/12/09 13:11:06;;;;;;;4.45;3.20;;;24.50;34.80;;;;;;5026660;28;20026;-47
2021/12/09 13:17:12;;;;;;;4.45;3.00;;;24.40;34.80;;;;;;5003299;28;20049;-48
2021/12/09 13:19:52;;;;;;;4.40;2.90;;;24.40;34.80;;;;;;5026770;28;20410;-48
2021/12/09 13:22:24;;;;;;;6.65;3.72;;;24.40;34.80;;;;;;5025921;28;20104;-47
2021/12/09 13:25:00;;;;;;;4.60;3.58;;;24.50;35.50;;;;;;5027066;28;20032;-47
2021/12/09 13:27:34;;;;;;;5.07;3.28;;;24.40;34.80;;;;;;5026195;28;20040;-47
2021/12/09 13:30:39;;;;;;;4.53;3.03;;;24.40;34.80;;;;;;5026138;28;20406;-47
2021/12/09 13:36:01;;;;;;;4.63;3.13;;;24.40;34.90;;;;;;5026387;28;20574;-48
2021/12/09 13:47:34;;;;;;;5.72;4.40;;;24.40;35.00;;;;;;5025288;28;20013;-48
2021/12/09 13:55:05;;;;;;;8.63;6.40;;;24.30;34.80;;;;;;5025584;28;20072;-48
2021/12/09 13:57:35;;;;;;;9.00;6.72;;;24.30;34.90;;;;;;5025675;28;20041;-47
2021/12/09 14:00:04;;;;;;;9.77;7.43;;;24.30;34.90;;;;;;5026245;28;20179;-48